createdAt,value
2018-05-29T00:02:11.434Z,87.00
2018-05-29T00:04:39.960Z,86.90
2018-05-29T00:07:07.127Z,86.50
2018-05-29T00:09:34.253Z,86.50
2018-05-29T00:12:02.177Z,86.20
2018-05-29T00:14:29.217Z,86.10
2018-05-29T00:16:57.908Z,86.70
2018-05-29T00:19:25.131Z,86.70
2018-05-29T00:21:52.201Z,87.00
2018-05-29T00:24:19.230Z,87.10
2018-05-29T00:26:46.372Z,87.40
2018-05-29T00:29:13.427Z,87.00
2018-05-29T00:31:40.482Z,86.50
2018-05-29T00:34:07.674Z,86.70
2018-05-29T00:36:34.792Z,86.20
2018-05-29T00:39:01.897Z,86.00
2018-05-29T00:41:29.064Z,86.20
2018-05-29T00:43:56.238Z,86.20
2018-05-29T00:46:25.268Z,86.40
2018-05-29T00:48:52.422Z,86.30
2018-05-29T00:51:20.266Z,86.80
2018-05-29T00:53:47.409Z,86.70
2018-05-29T00:56:14.501Z,86.60
2018-05-29T00:58:41.601Z,85.80
2018-05-29T01:01:09.466Z,85.40
2018-05-29T01:03:37.574Z,85.20
2018-05-29T01:06:04.626Z,85.20
2018-05-29T01:08:31.682Z,85.90
2018-05-29T01:11:00.434Z,86.20
2018-05-29T01:13:27.488Z,86.20
2018-05-29T01:15:54.602Z,86.00
2018-05-29T01:18:22.599Z,85.60
2018-05-29T01:20:49.669Z,85.50
2018-05-29T01:23:16.799Z,86.10
2018-05-29T01:25:44.621Z,86.00
2018-05-29T01:28:11.758Z,86.00
2018-05-29T01:30:38.842Z,86.20
2018-05-29T01:33:05.937Z,86.40
2018-05-29T01:35:33.026Z,85.80
2018-05-29T01:38:00.127Z,85.90
2018-05-29T01:40:27.213Z,85.00
2018-05-29T01:42:55.076Z,86.80
2018-05-29T01:45:22.182Z,86.30
2018-05-29T01:47:49.224Z,86.50
2018-05-29T01:50:17.043Z,88.10
2018-05-29T01:52:44.395Z,88.00
2018-05-29T01:55:11.442Z,88.70
2018-05-29T01:57:39.626Z,86.20
2018-05-29T02:00:07.484Z,85.80
2018-05-29T02:02:34.550Z,85.80
2018-05-29T02:05:02.365Z,86.30
2018-05-29T02:07:29.508Z,86.30
2018-05-29T02:09:56.550Z,86.10
2018-05-29T02:12:24.387Z,88.10
2018-05-29T02:14:51.474Z,88.00
2018-05-29T02:17:19.273Z,88.40
2018-05-29T02:19:47.106Z,88.30
2018-05-29T02:22:14.187Z,88.20
2018-05-29T02:24:41.369Z,89.30
2018-05-29T02:27:08.393Z,89.40
2018-05-29T02:29:35.439Z,89.80
2018-05-29T02:32:02.499Z,90.60
2018-05-29T02:34:29.612Z,90.60
2018-05-29T02:36:57.423Z,91.00
2018-05-29T02:39:24.506Z,91.00
2018-05-29T02:41:51.661Z,89.60
2018-05-29T02:44:18.704Z,89.60
2018-05-29T02:46:45.759Z,89.30
2018-05-29T02:49:12.911Z,90.00
2018-05-29T02:52:10.468Z,89.90
2018-05-29T02:54:42.737Z,90.20
2018-05-29T02:57:15.274Z,90.90
2018-05-29T02:59:54.592Z,90.90
2018-05-29T03:02:25.374Z,89.30
2018-05-29T03:04:58.121Z,89.30
2018-05-29T03:07:25.340Z,89.50
2018-05-29T03:09:54.880Z,89.80
2018-05-29T03:12:25.113Z,89.80
2018-05-29T03:14:56.137Z,90.40
2018-05-29T03:17:25.026Z,90.40
2018-05-29T03:19:55.752Z,90.70
2018-05-29T03:22:29.887Z,90.20
2018-05-29T03:24:56.963Z,89.70
2018-05-29T03:27:25.590Z,89.40
2018-05-29T03:29:56.285Z,90.00
2018-05-29T03:32:24.941Z,90.80
2018-05-29T03:34:55.564Z,90.10
2018-05-29T03:37:25.250Z,90.10
2018-05-29T03:48:57.691Z,90.10
2018-05-29T03:51:25.792Z,90.50
2018-05-29T03:53:58.385Z,90.60
2018-05-29T03:56:25.912Z,90.60
2018-05-29T04:01:57.250Z,90.10
2018-05-29T04:04:29.830Z,90.50
2018-05-29T04:21:00.834Z,90.10
2018-05-29T04:44:55.822Z,89.60
2018-05-29T04:47:26.338Z,90.00
2018-05-29T04:49:54.078Z,89.80
2018-05-29T04:52:27.671Z,90.00
2018-05-29T04:54:57.440Z,90.20
2018-05-29T04:57:24.594Z,90.10
2018-05-29T04:59:55.766Z,90.00
2018-05-29T05:02:23.273Z,90.00
2018-05-29T05:04:51.635Z,90.00
2018-05-29T05:07:20.074Z,89.30
2018-05-29T05:09:55.029Z,88.90
2018-05-29T05:12:22.197Z,88.90
2018-05-29T05:14:49.341Z,88.10
2018-05-29T05:20:40.118Z,86.60
2018-05-29T05:23:07.365Z,86.50
2018-05-29T05:25:34.479Z,86.70
2018-05-29T05:28:02.331Z,86.30
2018-05-29T05:30:55.557Z,86.30
2018-05-29T05:33:24.974Z,86.40
2018-05-29T05:35:55.835Z,86.20
2018-05-29T05:38:24.417Z,85.20
2018-05-29T05:40:55.352Z,83.60
2018-05-29T05:43:22.502Z,83.10
2018-05-29T05:48:24.801Z,82.70
2018-05-29T05:50:57.639Z,81.50
2018-05-29T05:53:25.310Z,81.50
2018-05-29T05:55:56.070Z,81.20
2018-05-29T05:58:24.792Z,80.20
2018-05-29T06:00:56.880Z,80.10
2018-05-29T06:03:25.405Z,80.80
2018-05-29T06:05:56.125Z,80.20
2018-05-29T06:08:23.349Z,79.70
2018-05-29T06:10:56.619Z,79.30
2018-05-29T06:13:25.562Z,78.40
2018-05-29T06:15:55.252Z,78.20
2018-05-29T08:42:16.681Z,58.30
2018-05-29T08:44:43.942Z,56.50
2018-05-29T08:47:11.010Z,56.70
2018-05-29T08:49:38.145Z,55.10
2018-05-29T08:52:15.826Z,55.00
2018-05-29T08:54:43.367Z,55.80
2018-05-29T09:03:06.191Z,54.00
2018-05-29T09:11:42.859Z,55.40
2018-05-29T09:23:07.609Z,54.40
2018-05-29T09:34:25.056Z,54.50
2018-05-29T09:45:31.063Z,52.30
2018-05-29T09:47:58.202Z,52.60
2018-05-29T09:50:25.275Z,52.70
2018-05-29T09:52:53.154Z,50.40
2018-05-29T09:55:20.168Z,50.40
2018-05-29T09:57:47.292Z,49.90
2018-05-29T10:00:14.442Z,50.50
2018-05-29T10:02:42.262Z,49.90
2018-05-29T10:05:09.711Z,49.90
2018-05-29T10:10:17.315Z,49.70
2018-05-29T10:12:54.622Z,48.60
2018-05-29T10:15:25.421Z,47.20
2018-05-29T10:17:54.989Z,48.10
2018-05-29T10:20:25.656Z,48.00
2018-05-29T10:22:52.767Z,49.50
2018-05-29T10:25:19.812Z,48.70
2018-05-29T10:27:55.309Z,47.80
2018-05-29T10:30:24.926Z,47.00
2018-05-29T10:32:55.631Z,46.90
2018-05-29T10:35:27.130Z,47.10
2018-05-29T10:37:54.948Z,48.70
2018-05-29T10:40:22.023Z,48.70
2018-05-29T10:42:51.066Z,48.60
2018-05-29T10:45:18.922Z,49.00
2018-05-29T10:47:45.978Z,48.90
2018-05-29T10:50:15.438Z,49.20
2018-05-29T10:52:42.649Z,50.80
2018-05-29T10:55:09.795Z,49.40
2018-05-29T10:57:43.522Z,49.90
2018-05-29T11:00:17.073Z,48.20
2018-05-29T11:05:25.462Z,47.40
2018-05-29T11:10:56.824Z,47.00
2018-05-29T11:13:54.190Z,46.40
2018-05-29T11:16:25.163Z,45.60
2018-05-29T11:18:56.282Z,44.70
2018-05-29T11:21:24.628Z,44.70
2018-05-29T11:23:56.287Z,46.10
2018-05-29T11:29:26.866Z,45.70
2018-05-29T11:31:54.825Z,46.30
2018-05-29T11:34:24.659Z,46.20
2018-05-29T11:36:55.480Z,46.80
2018-05-29T11:42:29.668Z,45.80
2018-05-29T11:44:56.801Z,47.10
2018-05-29T11:53:24.464Z,60.00
2018-05-29T11:55:55.260Z,60.40
2018-05-29T11:58:26.132Z,74.60
2018-05-29T12:00:54.565Z,67.50
2018-05-29T12:03:25.203Z,67.30
2018-05-29T12:05:55.902Z,74.80
2018-05-29T12:08:24.490Z,75.70
2018-05-29T12:10:59.152Z,74.90
2018-05-29T12:13:26.259Z,72.90
2018-05-29T12:15:54.751Z,72.80
2018-05-29T12:18:25.498Z,69.00
2018-05-29T12:20:55.941Z,70.90
2018-05-29T12:23:23.354Z,73.60
2018-05-29T12:25:56.620Z,74.00
2018-05-29T12:28:24.567Z,81.00
2018-05-29T12:30:57.046Z,74.20
2018-05-29T12:33:25.353Z,81.20
2018-05-29T12:35:52.414Z,81.20
2018-05-29T12:38:19.551Z,79.60
2018-05-29T12:40:54.899Z,86.40
2018-05-29T12:43:21.945Z,86.50
2018-05-29T12:45:49.001Z,87.70
2018-05-29T12:48:16.067Z,85.00
2018-05-29T12:50:43.101Z,86.80
2018-05-29T12:53:23.240Z,85.70
2018-05-29T12:55:55.904Z,85.60
2018-05-29T12:58:23.721Z,84.30
2018-05-29T13:00:57.193Z,84.20
2018-05-29T13:03:25.092Z,88.10
2018-05-29T13:05:53.472Z,88.10
2018-05-29T13:08:26.687Z,88.90
2018-05-29T13:11:01.188Z,88.50
2018-05-29T13:13:28.242Z,88.10
2018-05-29T13:15:55.307Z,89.30
2018-05-29T13:21:25.060Z,84.70
2018-05-29T13:23:55.399Z,84.20
2018-05-29T13:26:24.419Z,86.10
2018-05-29T13:28:53.326Z,85.20
2018-05-29T13:31:23.985Z,77.60
2018-05-29T13:33:51.083Z,77.60
2018-05-29T13:36:18.201Z,81.40
2018-05-29T13:38:46.069Z,85.30
2018-05-29T13:41:13.897Z,88.20
2018-05-29T13:43:45.231Z,88.20
2018-05-29T13:46:12.310Z,86.80
2018-05-29T13:48:39.395Z,90.00
2018-05-29T13:51:06.441Z,90.70
2018-05-29T13:53:33.581Z,86.70
2018-05-29T13:56:00.797Z,79.50
2018-05-29T13:58:27.845Z,82.00
2018-05-29T14:01:05.539Z,76.40
2018-05-29T14:03:32.661Z,73.50
2018-05-29T14:05:59.715Z,75.70
2018-05-29T14:08:26.807Z,72.30
2018-05-29T14:10:54.936Z,73.60
2018-05-29T14:13:24.752Z,72.80
2018-05-29T14:15:52.585Z,75.60
2018-05-29T14:18:19.639Z,75.60
2018-05-29T14:20:46.683Z,74.00
2018-05-29T14:23:13.811Z,73.10
2018-05-29T14:25:41.658Z,69.40
2018-05-29T14:28:08.838Z,69.30
2018-05-29T14:30:36.713Z,71.40
2018-05-29T14:33:08.225Z,70.50
2018-05-29T14:35:35.361Z,72.90
2018-05-29T14:38:03.312Z,78.20
2018-05-29T14:40:30.390Z,78.10
2018-05-29T14:42:57.462Z,78.30
2018-05-29T14:45:24.919Z,77.30
2018-05-29T14:47:52.185Z,84.10
2018-05-29T14:50:20.041Z,82.30
2018-05-29T14:52:48.090Z,82.30
2018-05-29T14:55:15.388Z,86.40
2018-05-29T14:57:42.508Z,87.40
2018-05-29T15:00:09.579Z,88.00
2018-05-29T15:02:38.747Z,89.00
2018-05-29T15:05:24.005Z,89.00
2018-05-29T15:07:51.858Z,90.20
2018-05-29T15:10:24.694Z,90.50
2018-05-29T15:12:51.808Z,91.00
2018-05-29T15:15:19.064Z,91.20
2018-05-29T15:17:46.412Z,91.30
2018-05-29T15:20:15.329Z,91.90
2018-05-29T15:22:43.550Z,91.10
2018-05-29T15:25:14.706Z,92.80
2018-05-29T15:27:42.821Z,91.90
2018-05-29T15:30:11.943Z,91.90
2018-05-29T15:32:43.765Z,92.70
2018-05-29T15:35:14.791Z,93.70
2018-05-29T15:37:43.466Z,92.70
2018-05-29T15:40:16.003Z,92.90
2018-05-29T15:42:43.113Z,93.00
2018-05-29T15:45:16.873Z,92.00
2018-05-29T15:47:55.201Z,92.00
2018-05-29T15:50:25.947Z,93.90
2018-05-29T15:52:56.741Z,93.30
2018-05-29T15:55:23.976Z,92.80
2018-05-29T15:57:53.690Z,92.40
2018-05-29T16:00:23.598Z,93.30
2018-05-29T16:02:53.450Z,92.50
2018-05-29T16:05:25.077Z,92.20
2018-05-29T16:07:55.855Z,93.10
2018-05-29T16:10:24.296Z,93.80
2018-05-29T16:12:55.396Z,93.70
2018-05-29T16:15:23.998Z,93.70
2018-05-29T16:17:54.354Z,93.10
2018-05-29T16:20:25.098Z,92.70
2018-05-29T16:22:58.393Z,92.30
2018-05-29T16:25:25.695Z,90.80
2018-05-29T16:27:54.959Z,91.00
2018-05-29T16:30:26.909Z,90.60
2018-05-29T16:32:54.241Z,91.40
2018-05-29T16:35:24.762Z,90.20
2018-05-29T16:37:54.936Z,90.20
2018-05-29T16:40:24.592Z,89.90
2018-05-29T16:42:55.482Z,90.80
2018-05-29T16:53:41.907Z,90.50
2018-05-29T16:56:12.171Z,91.90
2018-05-29T16:58:58.534Z,92.50
2018-05-29T17:01:26.030Z,93.20
2018-05-29T17:03:54.784Z,91.80
2018-05-29T17:06:25.393Z,92.00
2018-05-29T17:08:57.421Z,91.60
2018-05-29T17:11:24.662Z,90.40
2018-05-29T17:14:00.248Z,91.20
2018-05-29T17:16:53.292Z,90.80
2018-05-29T17:19:24.401Z,90.80
2018-05-29T17:24:56.842Z,91.30
2018-05-29T17:27:25.390Z,91.10
2018-05-29T17:44:55.188Z,92.30
2018-05-29T17:47:25.881Z,92.10
2018-05-29T17:50:12.555Z,92.10
2018-05-29T17:52:54.193Z,91.30
2018-05-29T17:55:27.034Z,91.10
2018-05-29T17:57:54.852Z,89.30
2018-05-29T18:00:25.341Z,90.20
2018-05-29T18:02:56.392Z,90.60
2018-05-29T18:05:24.833Z,91.10
2018-05-29T18:07:54.658Z,91.30
2018-05-29T18:10:25.210Z,90.90
2018-05-29T18:12:53.620Z,90.40
2018-05-29T18:15:28.052Z,90.50
2018-05-29T18:17:55.113Z,90.70
2018-05-29T18:20:26.068Z,90.90
2018-05-29T18:25:49.558Z,90.80
2018-05-29T18:28:16.636Z,90.80
2018-05-29T18:30:43.725Z,91.20
2018-05-29T18:51:01.458Z,91.30
2018-05-29T18:53:30.129Z,92.00
2018-05-29T18:55:57.426Z,91.10
2018-05-29T18:58:26.828Z,92.00
2018-05-29T19:00:55.774Z,92.20
2018-05-29T19:03:27.041Z,92.00
2018-05-29T19:05:55.003Z,91.70
2018-05-29T19:08:26.179Z,92.50
2018-05-29T19:10:54.192Z,92.50
2018-05-29T19:13:24.725Z,91.80
2018-05-29T19:15:55.667Z,92.00
2018-05-29T19:18:24.007Z,92.10
2018-05-29T19:20:53.700Z,91.60
2018-05-29T19:23:24.108Z,90.30
2018-05-29T19:25:51.702Z,91.90
2018-05-29T19:28:25.648Z,92.00
2018-05-29T19:30:55.775Z,92.20
2018-05-29T19:33:22.905Z,92.40
2018-05-29T19:35:56.126Z,91.40
2018-05-29T19:41:26.427Z,91.60
2018-05-29T19:43:54.367Z,91.70
2018-05-29T19:46:24.358Z,90.70
2018-05-29T19:48:57.847Z,91.20
2018-05-29T19:51:26.754Z,91.50
2018-05-29T19:53:54.998Z,91.50
2018-05-29T19:56:25.683Z,92.50
2018-05-29T19:58:58.391Z,92.20
2018-05-29T20:01:28.195Z,92.80
2018-05-29T20:03:55.919Z,92.80
2018-05-29T20:06:24.547Z,92.40
2018-05-29T20:08:55.183Z,92.20
2018-05-29T20:11:25.274Z,92.40
2018-05-29T20:13:55.956Z,93.10
2018-05-29T20:16:26.397Z,92.70
2018-05-29T20:18:53.720Z,92.50
2018-05-29T20:21:27.024Z,92.70
2018-05-29T20:23:55.069Z,92.50
2018-05-29T20:26:26.018Z,93.10
2018-05-29T20:28:56.262Z,93.00
2018-05-29T20:31:24.757Z,92.30
2018-05-29T20:33:54.420Z,91.80
2018-05-29T20:36:25.102Z,92.50
2018-05-29T20:38:55.931Z,93.00
2018-05-29T20:41:24.803Z,93.00
2018-05-29T20:43:54.786Z,92.70
2018-05-29T20:46:24.707Z,92.90
2018-05-29T20:48:53.066Z,92.60
2018-05-29T20:51:20.127Z,92.50
2018-05-29T20:56:44.954Z,91.90
2018-05-29T20:59:13.258Z,92.00
2018-05-29T21:01:41.166Z,92.20
2018-05-29T21:04:11.291Z,92.10
2018-05-29T21:06:38.410Z,92.50
2018-05-29T21:09:06.274Z,92.30
2018-05-29T21:11:33.341Z,92.30
2018-05-29T21:14:01.289Z,92.50
2018-05-29T21:16:29.363Z,92.50
2018-05-29T21:18:56.479Z,92.80
2018-05-29T21:21:27.910Z,92.90
2018-05-29T21:23:54.978Z,92.90
2018-05-29T21:26:23.003Z,93.30
2018-05-29T21:28:50.275Z,92.90
2018-05-29T21:31:17.309Z,93.70
2018-05-29T21:33:45.166Z,93.90
2018-05-29T21:36:15.051Z,93.90
2018-05-29T21:38:42.207Z,93.90
2018-05-29T21:41:09.292Z,93.60
2018-05-29T21:43:36.366Z,93.70
2018-05-29T21:46:03.549Z,93.70
2018-05-29T21:48:32.274Z,93.90
2018-05-29T21:50:59.564Z,93.60
2018-05-29T21:53:26.629Z,93.30
2018-05-29T21:55:54.741Z,93.90
2018-05-29T21:58:21.810Z,93.90
2018-05-29T22:00:49.863Z,93.80
2018-05-29T22:03:16.920Z,93.80
2018-05-29T22:05:43.967Z,93.70
2018-05-29T22:08:11.075Z,94.50
2018-05-29T22:10:38.932Z,93.90
2018-05-29T22:13:05.990Z,93.90
2018-05-29T22:15:33.075Z,93.70
2018-05-29T22:18:00.904Z,93.40
2018-05-29T22:20:28.063Z,93.40
2018-05-29T22:22:55.166Z,93.00
2018-05-29T22:25:23.138Z,93.40
2018-05-29T22:27:50.966Z,93.40
2018-05-29T22:30:18.290Z,93.30
2018-05-29T22:32:46.121Z,93.30
2018-05-29T22:35:13.195Z,93.30
2018-05-29T22:37:40.314Z,93.30
2018-05-29T22:42:57.250Z,93.60
2018-05-29T22:45:25.058Z,93.80
2018-05-29T22:48:00.096Z,93.80
2018-05-29T22:50:27.194Z,93.80
2018-05-29T22:52:58.761Z,93.90
2018-05-29T22:55:25.902Z,93.80
2018-05-29T22:57:52.958Z,93.60
2018-05-29T23:00:20.031Z,93.40
2018-05-29T23:02:47.070Z,93.80
2018-05-29T23:05:14.619Z,93.80
2018-05-29T23:07:41.720Z,93.50
2018-05-29T23:10:08.912Z,93.80
2018-05-29T23:12:36.009Z,93.80
2018-05-29T23:15:03.104Z,94.10
2018-05-29T23:17:30.254Z,94.20
2018-05-29T23:19:57.314Z,94.10
2018-05-29T23:22:24.380Z,94.10
2018-05-29T23:24:51.426Z,93.80
2018-05-29T23:27:18.550Z,93.90
2018-05-29T23:29:46.373Z,94.00
2018-05-29T23:32:13.453Z,93.90
2018-05-29T23:34:40.521Z,93.90
2018-05-29T23:37:11.468Z,93.80
2018-05-29T23:39:38.537Z,93.70
2018-05-29T23:42:05.585Z,93.40
2018-05-29T23:44:32.682Z,93.90
2018-05-29T23:47:00.054Z,94.10
2018-05-29T23:49:27.137Z,93.90
2018-05-29T23:51:54.210Z,94.30
2018-05-29T23:54:21.333Z,93.60
2018-05-29T23:56:52.428Z,94.10
2018-05-29T23:59:19.629Z,94.20
